createdAt,value
2022-12-29T00:01:23.965Z,999.6
2022-12-29T00:04:14.749Z,999.5
2022-12-29T00:07:02.627Z,999.5
2022-12-29T00:09:50.883Z,999.4
2022-12-29T00:12:38.225Z,999.5
2022-12-29T00:15:57.230Z,999.4
2022-12-29T00:18:44.500Z,999.3
2022-12-29T00:21:32.311Z,999.3
2022-12-29T00:24:51.482Z,999.2
2022-12-29T00:28:10.647Z,999.1
2022-12-29T00:31:29.729Z,999.3
2022-12-29T00:34:48.647Z,999.2
2022-12-29T00:38:07.668Z,999.3
2022-12-29T00:41:29.929Z,999.1
2022-12-29T00:44:48.965Z,998.9
2022-12-29T00:47:36.312Z,999.1
2022-12-29T00:50:23.526Z,999
2022-12-29T00:53:10.788Z,999
2022-12-29T00:55:58.117Z,998.9
2022-12-29T00:58:45.454Z,998.9
2022-12-29T01:01:33.122Z,998.9
2022-12-29T01:04:21.347Z,998.9
2022-12-29T01:07:10.491Z,998.9
2022-12-29T01:09:57.813Z,998.8
2022-12-29T01:13:00.993Z,998.9
2022-12-29T01:15:48.410Z,998.8
2022-12-29T01:18:36.703Z,998.8
2022-12-29T01:21:24.130Z,998.8
2022-12-29T01:24:11.725Z,998.8
2022-12-29T01:27:00.002Z,998.7
2022-12-29T01:29:47.400Z,998.9
2022-12-29T01:32:34.995Z,998.7
2022-12-29T01:35:22.284Z,998.6
2022-12-29T01:38:09.667Z,998.7
2022-12-29T01:40:57.010Z,998.7
2022-12-29T01:43:44.540Z,998.7
2022-12-29T01:46:34.198Z,998.6
2022-12-29T01:49:24.877Z,998.7
2022-12-29T01:52:14.901Z,998.6
2022-12-29T01:55:02.301Z,998.6
2022-12-29T01:57:52.439Z,998.5
2022-12-29T02:00:42.097Z,998.4
2022-12-29T02:03:29.539Z,998.3
2022-12-29T02:06:18.227Z,998.3
2022-12-29T02:09:09.294Z,998.4
2022-12-29T02:11:56.504Z,998.3
2022-12-29T02:14:45.545Z,998.3
2022-12-29T02:17:36.045Z,998.3
2022-12-29T02:20:39.493Z,998.3
2022-12-29T02:24:08.591Z,998.2
2022-12-29T02:27:20.387Z,998.2
2022-12-29T02:30:46.171Z,998.2
2022-12-29T02:33:43.258Z,998.1
2022-12-29T02:36:43.410Z,998.2
2022-12-29T02:39:42.020Z,998.1
2022-12-29T02:42:36.912Z,998.1
2022-12-29T02:45:33.145Z,998
2022-12-29T02:48:25.582Z,997.9
2022-12-29T02:51:18.481Z,997.9
2022-12-29T02:54:11.761Z,997.8
2022-12-29T02:57:31.310Z,997.9
2022-12-29T03:00:20.832Z,997.8
2022-12-29T03:03:08.176Z,997.7
2022-12-29T03:06:11.262Z,997.8
2022-12-29T03:09:18.791Z,997.8
2022-12-29T03:12:17.216Z,997.7
2022-12-29T03:15:47.583Z,997.7
2022-12-29T03:18:49.159Z,997.7
2022-12-29T03:21:46.071Z,997.8
2022-12-29T03:25:12.769Z,997.8
2022-12-29T03:28:05.357Z,997.7
2022-12-29T03:30:56.726Z,997.8
2022-12-29T03:33:45.719Z,997.8
2022-12-29T03:36:34.873Z,997.8
2022-12-29T03:39:28.458Z,997.8
2022-12-29T03:42:15.903Z,997.8
2022-12-29T03:45:07.432Z,997.8
2022-12-29T03:47:56.202Z,997.7
2022-12-29T03:50:43.522Z,997.7
2022-12-29T03:53:30.844Z,997.7
2022-12-29T03:56:18.252Z,997.5
2022-12-29T03:59:05.675Z,997.6
2022-12-29T04:01:52.968Z,997.6
2022-12-29T04:04:40.635Z,997.5
2022-12-29T04:07:27.898Z,997.5
2022-12-29T04:10:15.199Z,997.5
2022-12-29T04:13:02.675Z,997.5
2022-12-29T04:15:50.141Z,997.3
2022-12-29T04:18:37.476Z,997.4
2022-12-29T04:21:24.898Z,997.5
2022-12-29T04:24:12.139Z,997.5
2022-12-29T04:26:59.566Z,997.5
2022-12-29T04:29:47.487Z,997.5
2022-12-29T04:32:35.174Z,997.5
2022-12-29T04:35:22.543Z,997.4
2022-12-29T04:38:09.843Z,997.5
2022-12-29T04:40:57.625Z,997.5
2022-12-29T04:43:46.282Z,997.4
2022-12-29T04:46:34.335Z,997.2
2022-12-29T04:49:21.681Z,997.2
2022-12-29T04:52:09.723Z,997.2
2022-12-29T04:54:56.912Z,997.3
2022-12-29T04:57:44.184Z,997.2
2022-12-29T05:00:31.952Z,997.2
2022-12-29T05:03:19.655Z,997.1
2022-12-29T05:06:07.246Z,997.1
2022-12-29T05:08:54.739Z,997.1
2022-12-29T05:11:42.061Z,997
2022-12-29T05:14:29.391Z,997
2022-12-29T05:17:17.642Z,996.9
2022-12-29T05:20:05.984Z,996.8
2022-12-29T05:22:54.883Z,996.8
2022-12-29T05:25:42.241Z,996.7
2022-12-29T05:28:30.830Z,996.8
2022-12-29T05:31:18.827Z,996.7
2022-12-29T05:34:06.279Z,996.7
2022-12-29T05:36:55.023Z,996.8
2022-12-29T05:39:42.391Z,996.7
2022-12-29T05:42:29.723Z,996.7
2022-12-29T05:45:17.001Z,996.6
2022-12-29T05:48:05.812Z,996.6
2022-12-29T05:50:53.221Z,996.6
2022-12-29T05:53:40.544Z,996.6
2022-12-29T05:56:27.794Z,996.7
2022-12-29T05:59:15.148Z,996.6
2022-12-29T06:02:02.818Z,996.6
2022-12-29T06:04:50.201Z,996.6
2022-12-29T06:07:37.621Z,996.6
2022-12-29T06:10:25.050Z,996.7
2022-12-29T06:13:12.958Z,996.9
2022-12-29T06:16:00.280Z,996.8
2022-12-29T06:18:48.325Z,996.8
2022-12-29T06:21:35.603Z,996.7
2022-12-29T06:24:23.323Z,996.8
2022-12-29T06:27:10.610Z,996.7
2022-12-29T06:29:59.450Z,996.8
2022-12-29T06:32:47.946Z,996.9
2022-12-29T06:35:35.512Z,996.9
2022-12-29T06:38:22.845Z,996.9
2022-12-29T06:41:10.195Z,996.9
2022-12-29T06:43:57.507Z,996.8
2022-12-29T06:46:44.802Z,996.7
2022-12-29T06:49:32.245Z,996.8
2022-12-29T06:52:19.647Z,996.8
2022-12-29T06:55:07.013Z,996.8
2022-12-29T06:57:54.926Z,996.9
2022-12-29T07:00:43.073Z,996.9
2022-12-29T07:03:30.500Z,996.9
2022-12-29T07:06:17.745Z,996.8
2022-12-29T07:09:05.234Z,996.9
2022-12-29T07:11:53.003Z,997
2022-12-29T07:14:43.163Z,997.1
2022-12-29T07:17:31.011Z,997
2022-12-29T07:20:23.185Z,997
2022-12-29T07:23:13.806Z,997
2022-12-29T07:26:01.103Z,996.9
2022-12-29T07:28:50.834Z,996.9
2022-12-29T07:31:38.294Z,996.8
2022-12-29T07:34:26.099Z,996.8
2022-12-29T07:37:13.437Z,996.9
2022-12-29T07:40:01.654Z,996.7
2022-12-29T07:42:51.358Z,996.7
2022-12-29T07:45:38.704Z,996.8
2022-12-29T07:48:26.141Z,996.7
2022-12-29T07:51:13.483Z,996.9
2022-12-29T07:54:00.820Z,996.9
2022-12-29T07:56:48.531Z,996.8
2022-12-29T07:59:36.409Z,996.9
2022-12-29T08:02:23.872Z,996.8
2022-12-29T08:05:11.896Z,996.8
2022-12-29T08:07:59.497Z,996.7
2022-12-29T08:10:47.278Z,996.8
2022-12-29T08:13:35.191Z,996.8
2022-12-29T08:16:22.683Z,996.9
2022-12-29T08:19:10.005Z,996.9
2022-12-29T08:21:57.882Z,996.9
2022-12-29T08:24:45.252Z,996.9
2022-12-29T08:27:32.649Z,997
2022-12-29T08:30:20.084Z,997
2022-12-29T08:33:07.546Z,996.9
2022-12-29T08:35:55.231Z,996.9
2022-12-29T08:38:46.116Z,996.9
2022-12-29T08:41:33.749Z,996.9
2022-12-29T08:44:21.060Z,997
2022-12-29T08:47:08.507Z,996.9
2022-12-29T08:49:57.486Z,996.9
2022-12-29T08:52:44.722Z,996.9
2022-12-29T08:55:32.044Z,996.9
2022-12-29T08:58:19.415Z,997
2022-12-29T09:01:06.782Z,997
2022-12-29T09:04:14.192Z,997
2022-12-29T09:07:02.641Z,996.9
2022-12-29T09:09:51.153Z,996.9
2022-12-29T09:12:38.530Z,996.8
2022-12-29T09:15:25.941Z,996.8
2022-12-29T09:18:19.035Z,996.8
2022-12-29T09:21:07.881Z,996.8
2022-12-29T09:23:57.529Z,996.9
2022-12-29T09:26:47.069Z,996.9
2022-12-29T09:29:35.064Z,996.8
2022-12-29T09:32:23.650Z,996.8
2022-12-29T09:35:11.949Z,996.9
2022-12-29T09:38:00.507Z,996.8
2022-12-29T09:40:48.451Z,996.7
2022-12-29T09:43:38.314Z,996.7
2022-12-29T09:46:38.568Z,996.7
2022-12-29T09:49:30.281Z,996.7
2022-12-29T09:52:26.834Z,996.7
2022-12-29T09:55:21.496Z,996.5
2022-12-29T09:58:13.733Z,996.6
2022-12-29T10:01:07.867Z,996.7
2022-12-29T10:04:13.003Z,996.7
2022-12-29T10:07:30.425Z,996.6
2022-12-29T10:10:28.575Z,996.7
2022-12-29T10:13:24.403Z,996.5
2022-12-29T10:16:23.397Z,996.5
2022-12-29T10:19:20.609Z,996.5
2022-12-29T10:22:22.309Z,996.4
2022-12-29T10:25:26.105Z,996.4
2022-12-29T10:28:22.884Z,996.6
2022-12-29T10:31:17.533Z,996.6
2022-12-29T10:34:08.395Z,996.6
2022-12-29T10:37:06.012Z,996.6
2022-12-29T10:40:02.281Z,996.5
2022-12-29T10:43:04.486Z,996.5
2022-12-29T10:46:06.408Z,996.4
2022-12-29T10:48:57.916Z,996.3
2022-12-29T10:51:45.334Z,996.3
2022-12-29T10:54:37.560Z,996.3
2022-12-29T10:57:31.095Z,996.3
2022-12-29T11:00:22.227Z,996.3
2022-12-29T11:03:10.459Z,996.3
2022-12-29T11:06:38.271Z,996.2
2022-12-29T11:09:36.601Z,996.2
2022-12-29T11:12:31.304Z,996
2022-12-29T11:15:19.481Z,996.1
2022-12-29T11:18:06.901Z,996.1
2022-12-29T11:21:06.246Z,996.1
2022-12-29T11:24:12.626Z,995.9
2022-12-29T11:27:07.523Z,995.9
2022-12-29T11:30:00.379Z,996
2022-12-29T11:32:49.414Z,996.1
2022-12-29T11:35:38.301Z,995.9
2022-12-29T11:38:29.108Z,995.9
2022-12-29T11:41:21.512Z,996
2022-12-29T11:44:11.585Z,996
2022-12-29T11:46:59.595Z,996
2022-12-29T11:49:47.030Z,996
2022-12-29T11:52:36.897Z,996
2022-12-29T11:55:25.107Z,995.9
2022-12-29T11:58:13.797Z,996
2022-12-29T12:01:02.646Z,995.9
2022-12-29T12:03:53.785Z,996
2022-12-29T12:06:47.362Z,995.9
2022-12-29T12:09:44.282Z,995.8
2022-12-29T12:12:36.657Z,995.9
2022-12-29T12:15:30.726Z,995.8
2022-12-29T12:18:23.398Z,995.8
2022-12-29T12:21:23.291Z,995.9
2022-12-29T12:24:18.249Z,995.8
2022-12-29T12:27:21.620Z,995.8
2022-12-29T12:30:12.971Z,995.9
2022-12-29T12:33:03.035Z,995.7
2022-12-29T12:35:58.378Z,995.7
2022-12-29T12:39:08.187Z,995.8
2022-12-29T12:42:04.992Z,995.7
2022-12-29T12:45:08.026Z,995.8
2022-12-29T12:48:17.284Z,995.7
2022-12-29T12:51:22.256Z,995.8
2022-12-29T12:54:20.495Z,995.7
2022-12-29T12:57:20.569Z,995.7
2022-12-29T13:00:18.276Z,995.7
2022-12-29T13:03:09.180Z,995.7
2022-12-29T13:06:05.007Z,995.8
2022-12-29T13:09:12.824Z,995.8
2022-12-29T13:12:15.437Z,995.7
2022-12-29T13:15:15.164Z,995.7
2022-12-29T13:18:16.587Z,995.8
2022-12-29T13:21:11.844Z,995.8
2022-12-29T13:24:10.900Z,995.8
2022-12-29T13:27:05.555Z,995.9
2022-12-29T13:30:01.551Z,996
2022-12-29T13:32:54.683Z,995.9
2022-12-29T13:35:51.518Z,995.8
2022-12-29T13:38:46.033Z,995.9
2022-12-29T13:41:37.522Z,995.8
2022-12-29T13:44:36.108Z,995.8
2022-12-29T13:47:29.883Z,995.9
2022-12-29T13:50:20.375Z,995.8
2022-12-29T13:53:11.827Z,995.8
2022-12-29T13:56:13.249Z,995.8
2022-12-29T13:59:06.903Z,995.8
2022-12-29T14:02:03.958Z,995.8
2022-12-29T14:05:03.483Z,995.9
2022-12-29T14:08:15.850Z,995.8
2022-12-29T14:11:04.497Z,995.9
2022-12-29T14:13:56.033Z,995.9
2022-12-29T14:16:44.083Z,996
2022-12-29T14:19:32.269Z,996
2022-12-29T14:22:32.735Z,996
2022-12-29T14:25:20.756Z,996
2022-12-29T14:28:42.005Z,996
2022-12-29T14:31:31.637Z,996.1
2022-12-29T14:34:26.261Z,996.1
2022-12-29T14:37:16.053Z,996.1
2022-12-29T14:40:12.928Z,996
2022-12-29T14:43:05.222Z,996.1
2022-12-29T14:46:00.663Z,996.1
2022-12-29T14:48:49.034Z,996
2022-12-29T14:51:43.865Z,996.1
2022-12-29T14:54:32.941Z,996
2022-12-29T14:57:31.960Z,996
2022-12-29T15:00:23.590Z,996
2022-12-29T15:03:15.699Z,996
2022-12-29T15:06:10.002Z,995.9
2022-12-29T15:09:04.290Z,996
2022-12-29T15:12:06.009Z,996
2022-12-29T15:15:07.454Z,996.1
2022-12-29T15:18:07.236Z,996.1
2022-12-29T15:21:07.616Z,996
2022-12-29T15:24:00.776Z,996
2022-12-29T15:26:49.576Z,996.1
2022-12-29T15:29:40.298Z,996
2022-12-29T15:32:30.003Z,996
2022-12-29T15:35:26.290Z,996.1
2022-12-29T15:38:18.245Z,996.1
2022-12-29T15:41:09.797Z,996.1
2022-12-29T15:44:10.775Z,996.1
2022-12-29T15:47:06.319Z,996.2
2022-12-29T15:50:09.074Z,996.1
2022-12-29T15:53:07.937Z,996.2
2022-12-29T15:56:03.193Z,996.1
2022-12-29T15:58:55.562Z,996.2
2022-12-29T16:01:43.474Z,996.2
2022-12-29T16:04:31.271Z,996.2
2022-12-29T16:07:18.760Z,996.2
2022-12-29T16:10:13.766Z,996.2
2022-12-29T16:13:11.505Z,996.2
2022-12-29T16:16:04.980Z,996.2
2022-12-29T16:18:58.426Z,996.3
2022-12-29T16:21:49.698Z,996.3
2022-12-29T16:24:37.513Z,996.4
2022-12-29T16:27:26.080Z,996.5
2022-12-29T16:30:19.931Z,996.6
2022-12-29T16:33:09.778Z,996.7
2022-12-29T16:36:23.507Z,996.7
2022-12-29T16:39:14.356Z,996.7
2022-12-29T16:42:07.649Z,996.9
2022-12-29T16:45:32.045Z,996.9
2022-12-29T16:49:12.277Z,996.8
2022-12-29T16:52:03.535Z,996.8
2022-12-29T16:54:59.497Z,996.9
2022-12-29T16:57:47.301Z,996.9
2022-12-29T17:00:39.056Z,996.9
2022-12-29T17:03:26.537Z,996.9
2022-12-29T17:06:18.987Z,996.8
2022-12-29T17:09:08.380Z,996.9
2022-12-29T17:12:11.090Z,996.9
2022-12-29T17:15:03.150Z,996.9
2022-12-29T17:17:57.923Z,996.8
2022-12-29T17:20:46.059Z,996.8
2022-12-29T17:23:33.495Z,996.9
2022-12-29T17:26:21.564Z,996.9
2022-12-29T17:29:08.787Z,996.9
2022-12-29T17:32:04.715Z,996.9
2022-12-29T17:34:57.747Z,996.8
2022-12-29T17:37:45.423Z,997
2022-12-29T17:40:34.032Z,997.1
2022-12-29T17:43:21.806Z,997
2022-12-29T17:46:09.871Z,997.1
2022-12-29T17:48:57.787Z,997.1
2022-12-29T17:51:45.290Z,996.9
2022-12-29T17:54:32.934Z,997
2022-12-29T17:57:20.502Z,996.9
2022-12-29T18:00:07.952Z,996.9
2022-12-29T18:03:00.662Z,997
2022-12-29T18:05:49.129Z,997
2022-12-29T18:08:36.423Z,997
2022-12-29T18:11:25.828Z,997.1
2022-12-29T18:14:13.436Z,997.1
2022-12-29T18:17:02.184Z,997.1
2022-12-29T18:19:57.078Z,997.1
2022-12-29T18:22:44.646Z,997.2
2022-12-29T18:25:31.993Z,997.2
2022-12-29T18:28:27.288Z,997.2
2022-12-29T18:31:15.379Z,997.3
2022-12-29T18:34:06.187Z,997.3
2022-12-29T18:37:00.613Z,997.3
2022-12-29T18:39:48.412Z,996.9
2022-12-29T18:42:35.992Z,997.3
2022-12-29T18:45:23.242Z,997.3
2022-12-29T18:48:10.872Z,997.4
2022-12-29T18:50:58.594Z,997.4
2022-12-29T18:53:45.799Z,997.4
2022-12-29T18:56:33.658Z,997.4
2022-12-29T18:59:20.986Z,997.5
2022-12-29T19:02:09.346Z,997.5
2022-12-29T19:05:07.101Z,997.5
2022-12-29T19:08:08.029Z,997.5
2022-12-29T19:10:56.854Z,997.6
2022-12-29T19:13:45.167Z,997.6
2022-12-29T19:16:32.489Z,997.7
2022-12-29T19:19:19.993Z,997.8
2022-12-29T19:22:07.335Z,997.7
2022-12-29T19:24:59.917Z,997.7
2022-12-29T19:27:47.900Z,997.7
2022-12-29T19:30:36.074Z,997.8
2022-12-29T19:33:24.223Z,997.7
2022-12-29T19:36:12.734Z,997.7
2022-12-29T19:39:01.480Z,997.8
2022-12-29T19:41:49.246Z,997.8
2022-12-29T19:44:36.570Z,997.8
2022-12-29T19:47:30.052Z,997.8
2022-12-29T19:50:19.669Z,997.8
2022-12-29T19:53:07.293Z,997.9
2022-12-29T19:55:55.110Z,997.9
2022-12-29T19:58:46.851Z,998
2022-12-29T20:01:36.135Z,997.9
2022-12-29T20:04:23.587Z,997.9
2022-12-29T20:07:17.269Z,997.9
2022-12-29T20:10:06.704Z,997.9
2022-12-29T20:12:54.757Z,997.8
2022-12-29T20:15:42.024Z,997.8
2022-12-29T20:18:29.637Z,997.7
2022-12-29T20:21:17.464Z,997.8
2022-12-29T20:24:06.641Z,997.8
2022-12-29T20:26:54.164Z,997.9
2022-12-29T20:29:41.860Z,997.8
2022-12-29T20:32:29.397Z,997.9
2022-12-29T20:35:20.239Z,997.9
2022-12-29T20:38:07.689Z,997.8
2022-12-29T20:40:55.114Z,997.9
2022-12-29T20:43:42.463Z,997.9
2022-12-29T20:46:35.321Z,997.9
2022-12-29T20:49:26.897Z,997.9
2022-12-29T20:52:14.661Z,998
2022-12-29T20:55:02.533Z,998
2022-12-29T20:58:22.548Z,998
2022-12-29T21:01:10.382Z,998
2022-12-29T21:04:00.158Z,998
2022-12-29T21:06:48.548Z,998.1
2022-12-29T21:09:36.188Z,998
2022-12-29T21:12:23.596Z,997.9
2022-12-29T21:15:10.837Z,998
2022-12-29T21:17:59.979Z,998
2022-12-29T21:20:47.331Z,998.1
2022-12-29T21:23:41.259Z,998.1
2022-12-29T21:26:28.485Z,998.1
2022-12-29T21:29:16.512Z,998.1
2022-12-29T21:32:06.011Z,998.1
2022-12-29T21:34:54.299Z,998
2022-12-29T21:37:41.593Z,998.1
2022-12-29T21:40:28.937Z,998.1
2022-12-29T21:43:16.776Z,998.2
2022-12-29T21:46:04.149Z,998.1
2022-12-29T21:48:51.711Z,998.1
2022-12-29T21:51:39.075Z,998.2
2022-12-29T21:54:42.192Z,998.1
2022-12-29T21:57:45.802Z,998.2
2022-12-29T22:01:05.002Z,998.2
2022-12-29T22:04:28.533Z,998.3
2022-12-29T22:07:47.535Z,998.2
2022-12-29T22:11:07.295Z,998.2
2022-12-29T22:14:26.336Z,998.3
2022-12-29T22:17:14.423Z,998.2
2022-12-29T22:20:02.350Z,998.2
2022-12-29T22:22:51.767Z,998.2
2022-12-29T22:25:39.375Z,998.3
2022-12-29T22:28:26.962Z,998.3
2022-12-29T22:31:14.286Z,998.3
2022-12-29T22:34:11.766Z,998.2
2022-12-29T22:36:59.252Z,998.3
2022-12-29T22:39:46.831Z,998.3
2022-12-29T22:42:35.013Z,998.3
2022-12-29T22:45:22.808Z,998.3
2022-12-29T22:48:10.134Z,998.3
2022-12-29T22:50:57.409Z,998.4
2022-12-29T22:53:44.755Z,998.3
2022-12-29T22:56:33.903Z,998.3
2022-12-29T22:59:26.500Z,998.3
2022-12-29T23:02:14.315Z,998.3
2022-12-29T23:05:04.099Z,998.4
2022-12-29T23:07:53.022Z,998.4
2022-12-29T23:10:40.269Z,998.5
2022-12-29T23:13:27.779Z,998.4
2022-12-29T23:16:15.316Z,998.5
2022-12-29T23:19:03.187Z,998.5
2022-12-29T23:21:50.723Z,998.4
2022-12-29T23:24:38.118Z,998.5
2022-12-29T23:27:25.711Z,998.5
2022-12-29T23:30:13.007Z,998.5
2022-12-29T23:33:00.381Z,998.5
2022-12-29T23:35:48.112Z,998.5
2022-12-29T23:38:35.968Z,998.6
2022-12-29T23:41:23.421Z,998.5
2022-12-29T23:44:11.884Z,998.5
2022-12-29T23:46:59.357Z,998.5
2022-12-29T23:49:46.994Z,998.5
2022-12-29T23:52:35.045Z,998.5
2022-12-29T23:55:22.398Z,998.6
2022-12-29T23:58:09.875Z,998.6
